sensor_id;sensor_type;location;lat;lon;timestamp;temperature;humidity
52397;DHT22;38322;53.108;6.308;2024-02-21T06:03:28;8.50;99.90
52397;DHT22;38322;53.108;6.308;2024-02-21T06:05:54;8.50;99.90
52397;DHT22;38322;53.108;6.308;2024-02-21T06:08:20;8.50;99.90
52397;DHT22;38322;53.108;6.308;2024-02-21T06:10:46;8.50;99.90
52397;DHT22;38322;53.108;6.308;2024-02-21T06:13:11;8.50;99.90
52397;DHT22;38322;53.108;6.308;2024-02-21T06:15:37;8.50;99.90
52397;DHT22;38322;53.108;6.308;2024-02-21T06:18:03;8.50;99.90
52397;DHT22;38322;53.108;6.308;2024-02-21T06:20:29;8.50;99.90
52397;DHT22;38322;53.108;6.308;2024-02-21T06:22:55;8.50;99.90
52397;DHT22;38322;53.108;6.308;2024-02-21T06:25:21;8.40;99.90
52397;DHT22;38322;53.108;6.308;2024-02-21T06:27:47;8.40;99.90
52397;DHT22;38322;53.108;6.308;2024-02-21T06:30:13;8.40;99.90
52397;DHT22;38322;53.108;6.308;2024-02-21T06:32:39;8.50;99.90
52397;DHT22;38322;53.108;6.308;2024-02-21T06:35:05;8.50;99.90
52397;DHT22;38322;53.108;6.308;2024-02-21T06:37:31;8.50;99.90
52397;DHT22;38322;53.108;6.308;2024-02-21T06:39:58;8.50;99.90
52397;DHT22;38322;53.108;6.308;2024-02-21T06:42:25;8.50;99.90
52397;DHT22;38322;53.108;6.308;2024-02-21T06:44:51;8.50;99.90
52397;DHT22;38322;53.108;6.308;2024-02-21T06:47:17;8.50;99.90
52397;DHT22;38322;53.108;6.308;2024-02-21T06:49:47;8.50;99.90
52397;DHT22;38322;53.108;6.308;2024-02-21T06:52:13;8.50;99.90
52397;DHT22;38322;53.108;6.308;2024-02-21T06:54:42;8.50;99.90
52397;DHT22;38322;53.108;6.308;2024-02-21T06:57:08;8.50;99.90
52397;DHT22;38322;53.108;6.308;2024-02-21T06:59:34;8.50;99.90
52397;DHT22;38322;53.108;6.308;2024-02-21T07:02:00;8.50;99.90
52397;DHT22;38322;53.108;6.308;2024-02-21T07:04:26;8.50;99.90
52397;DHT22;38322;53.108;6.308;2024-02-21T07:06:55;8.50;99.90
52397;DHT22;38322;53.108;6.308;2024-02-21T07:09:20;8.50;99.90
52397;DHT22;38322;53.108;6.308;2024-02-21T07:11:46;8.50;99.90
52397;DHT22;38322;53.108;6.308;2024-02-21T07:14:14;8.60;99.90
52397;DHT22;38322;53.108;6.308;2024-02-21T07:16:41;8.50;99.90
52397;DHT22;38322;53.108;6.308;2024-02-21T07:19:07;8.60;99.90
52397;DHT22;38322;53.108;6.308;2024-02-21T07:21:32;8.50;99.90
52397;DHT22;38322;53.108;6.308;2024-02-21T07:23:58;8.50;99.90
52397;DHT22;38322;53.108;6.308;2024-02-21T07:26:24;8.60;99.90
52397;DHT22;38322;53.108;6.308;2024-02-21T07:28:50;8.60;99.90
52397;DHT22;38322;53.108;6.308;2024-02-21T07:31:16;8.60;99.90
52397;DHT22;38322;53.108;6.308;2024-02-21T07:33:42;8.60;99.90
52397;DHT22;38322;53.108;6.308;2024-02-21T07:36:10;8.60;99.90
52397;DHT22;38322;53.108;6.308;2024-02-21T07:38:36;8.60;99.90
52397;DHT22;38322;53.108;6.308;2024-02-21T07:41:02;8.60;99.90
52397;DHT22;38322;53.108;6.308;2024-02-21T07:43:30;8.60;99.90
52397;DHT22;38322;53.108;6.308;2024-02-21T07:45:55;8.70;99.90
52397;DHT22;38322;53.108;6.308;2024-02-21T07:48:22;8.60;99.90
52397;DHT22;38322;53.108;6.308;2024-02-21T07:50:54;8.60;99.90
52397;DHT22;38322;53.108;6.308;2024-02-21T07:53:20;8.60;99.90
52397;DHT22;38322;53.108;6.308;2024-02-21T07:55:46;8.70;99.90
52397;DHT22;38322;53.108;6.308;2024-02-21T07:58:12;8.60;99.90
52397;DHT22;38322;53.108;6.308;2024-02-21T08:00:38;8.70;99.90
52397;DHT22;38322;53.108;6.308;2024-02-21T08:03:04;8.60;99.90
52397;DHT22;38322;53.108;6.308;2024-02-21T08:05:29;8.70;99.90
52397;DHT22;38322;53.108;6.308;2024-02-21T08:07:55;8.70;99.90
52397;DHT22;38322;53.108;6.308;2024-02-21T08:10:22;8.70;99.90
52397;DHT22;38322;53.108;6.308;2024-02-21T08:12:48;8.70;99.90
52397;DHT22;38322;53.108;6.308;2024-02-21T08:15:14;8.70;99.90
52397;DHT22;38322;53.108;6.308;2024-02-21T08:17:41;8.70;99.90
52397;DHT22;38322;53.108;6.308;2024-02-21T08:20:07;8.70;99.90
52397;DHT22;38322;53.108;6.308;2024-02-21T08:22:33;8.70;99.90
52397;DHT22;38322;53.108;6.308;2024-02-21T08:24:59;8.70;99.90
52397;DHT22;38322;53.108;6.308;2024-02-21T08:27:25;8.70;99.90
52397;DHT22;38322;53.108;6.308;2024-02-21T08:29:50;8.70;99.90
52397;DHT22;38322;53.108;6.308;2024-02-21T08:32:16;8.70;99.90
52397;DHT22;38322;53.108;6.308;2024-02-21T08:34:42;8.70;99.90
52397;DHT22;38322;53.108;6.308;2024-02-21T08:37:08;8.70;99.90
52397;DHT22;38322;53.108;6.308;2024-02-21T08:39:36;8.70;99.90
52397;DHT22;38322;53.108;6.308;2024-02-21T08:42:02;8.70;99.90
52397;DHT22;38322;53.108;6.308;2024-02-21T08:44:28;8.70;99.90
52397;DHT22;38322;53.108;6.308;2024-02-21T08:46:54;8.70;99.90
52397;DHT22;38322;53.108;6.308;2024-02-21T08:49:20;8.70;99.90
52397;DHT22;38322;53.108;6.308;2024-02-21T08:51:45;8.70;99.90
52397;DHT22;38322;53.108;6.308;2024-02-21T08:54:12;8.70;99.90
52397;DHT22;38322;53.108;6.308;2024-02-21T08:56:37;8.70;99.90
52397;DHT22;38322;53.108;6.308;2024-02-21T08:59:03;8.70;99.90
52397;DHT22;38322;53.108;6.308;2024-02-21T09:01:29;8.80;99.90
52397;DHT22;38322;53.108;6.308;2024-02-21T09:03:55;8.70;99.90
52397;DHT22;38322;53.108;6.308;2024-02-21T09:06:22;8.80;99.90
52397;DHT22;38322;53.108;6.308;2024-02-21T09:08:48;8.80;99.90
52397;DHT22;38322;53.108;6.308;2024-02-21T09:11:14;8.80;99.90
52397;DHT22;38322;53.108;6.308;2024-02-21T09:13:40;8.80;99.90
52397;DHT22;38322;53.108;6.308;2024-02-21T09:16:06;8.80;99.90
52397;DHT22;38322;53.108;6.308;2024-02-21T09:18:32;8.80;99.90
52397;DHT22;38322;53.108;6.308;2024-02-21T09:20:58;8.80;99.90
52397;DHT22;38322;53.108;6.308;2024-02-21T09:23:24;8.80;99.90
52397;DHT22;38322;53.108;6.308;2024-02-21T09:25:50;8.80;99.90
52397;DHT22;38322;53.108;6.308;2024-02-21T09:28:16;8.80;99.90
52397;DHT22;38322;53.108;6.308;2024-02-21T09:30:42;8.80;99.90
52397;DHT22;38322;53.108;6.308;2024-02-21T09:33:08;8.80;99.90
52397;DHT22;38322;53.108;6.308;2024-02-21T09:35:34;8.80;99.90
52397;DHT22;38322;53.108;6.308;2024-02-21T09:38:00;8.80;99.90
52397;DHT22;38322;53.108;6.308;2024-02-21T09:40:27;8.80;99.90
52397;DHT22;38322;53.108;6.308;2024-02-21T09:43:05;8.80;99.90
52397;DHT22;38322;53.108;6.308;2024-02-21T09:45:33;8.90;99.90
52397;DHT22;38322;53.108;6.308;2024-02-21T09:48:15;8.90;99.90
52397;DHT22;38322;53.108;6.308;2024-02-21T09:50:46;8.90;99.90
52397;DHT22;38322;53.108;6.308;2024-02-21T09:53:13;8.90;99.90
52397;DHT22;38322;53.108;6.308;2024-02-21T09:55:40;9.00;99.90
52397;DHT22;38322;53.108;6.308;2024-02-21T09:58:07;9.00;99.90
52397;DHT22;38322;53.108;6.308;2024-02-21T10:00:35;9.00;99.90
52397;DHT22;38322;53.108;6.308;2024-02-21T10:03:02;9.00;99.90
52397;DHT22;38322;53.108;6.308;2024-02-21T10:05:34;9.00;99.90
52397;DHT22;38322;53.108;6.308;2024-02-21T10:08:01;9.10;99.90
52397;DHT22;38322;53.108;6.308;2024-02-21T10:10:27;9.10;99.90
52397;DHT22;38322;53.108;6.308;2024-02-21T10:12:55;9.00;99.90
52397;DHT22;38322;53.108;6.308;2024-02-21T10:15:22;9.10;99.90
52397;DHT22;38322;53.108;6.308;2024-02-21T10:17:49;9.10;99.90
52397;DHT22;38322;53.108;6.308;2024-02-21T10:20:15;9.10;99.90
52397;DHT22;38322;53.108;6.308;2024-02-21T10:22:42;9.10;99.90
52397;DHT22;38322;53.108;6.308;2024-02-21T10:25:09;9.10;99.90
52397;DHT22;38322;53.108;6.308;2024-02-21T10:27:37;9.10;99.90
52397;DHT22;38322;53.108;6.308;2024-02-21T10:30:05;9.10;99.90
52397;DHT22;38322;53.108;6.308;2024-02-21T10:32:31;9.10;99.90
52397;DHT22;38322;53.108;6.308;2024-02-21T10:35:02;9.10;99.90
52397;DHT22;38322;53.108;6.308;2024-02-21T10:37:31;9.10;99.90
52397;DHT22;38322;53.108;6.308;2024-02-21T10:39:57;9.10;99.90
52397;DHT22;38322;53.108;6.308;2024-02-21T10:42:29;9.10;99.90
52397;DHT22;38322;53.108;6.308;2024-02-21T10:45:00;9.20;99.90
52397;DHT22;38322;53.108;6.308;2024-02-21T10:47:31;9.30;99.90
52397;DHT22;38322;53.108;6.308;2024-02-21T10:50:03;9.40;99.90
52397;DHT22;38322;53.108;6.308;2024-02-21T10:52:44;9.50;99.90
52397;DHT22;38322;53.108;6.308;2024-02-21T10:55:22;9.60;99.90
52397;DHT22;38322;53.108;6.308;2024-02-21T10:57:53;9.60;99.90
52397;DHT22;38322;53.108;6.308;2024-02-21T11:00:19;9.70;99.90
52397;DHT22;38322;53.108;6.308;2024-02-21T11:02:47;9.70;99.90
52397;DHT22;38322;53.108;6.308;2024-02-21T11:05:15;9.80;99.90
52397;DHT22;38322;53.108;6.308;2024-02-21T11:07:42;9.70;99.90
52397;DHT22;38322;53.108;6.308;2024-02-21T11:10:22;9.80;99.90
52397;DHT22;38322;53.108;6.308;2024-02-21T11:12:48;9.80;99.90
52397;DHT22;38322;53.108;6.308;2024-02-21T11:15:15;9.80;99.90
52397;DHT22;38322;53.108;6.308;2024-02-21T11:17:40;9.80;99.90
52397;DHT22;38322;53.108;6.308;2024-02-21T11:20:13;9.80;99.90
52397;DHT22;38322;53.108;6.308;2024-02-21T11:22:43;9.70;99.90
52397;DHT22;38322;53.108;6.308;2024-02-21T11:25:09;9.70;99.90
52397;DHT22;38322;53.108;6.308;2024-02-21T11:27:45;9.60;99.90
52397;DHT22;38322;53.108;6.308;2024-02-21T11:30:12;9.60;99.90
52397;DHT22;38322;53.108;6.308;2024-02-21T11:32:41;9.60;99.90
52397;DHT22;38322;53.108;6.308;2024-02-21T11:35:07;9.50;99.90
52397;DHT22;38322;53.108;6.308;2024-02-21T11:37:33;9.50;99.90
52397;DHT22;38322;53.108;6.308;2024-02-21T11:40:00;9.60;99.90
52397;DHT22;38322;53.108;6.308;2024-02-21T11:42:27;9.50;99.90
52397;DHT22;38322;53.108;6.308;2024-02-21T11:44:53;9.50;99.90
52397;DHT22;38322;53.108;6.308;2024-02-21T11:47:22;9.50;99.90
52397;DHT22;38322;53.108;6.308;2024-02-21T11:49:49;9.50;99.90
52397;DHT22;38322;53.108;6.308;2024-02-21T11:52:21;9.60;99.90
52397;DHT22;38322;53.108;6.308;2024-02-21T11:54:48;9.50;99.90
52397;DHT22;38322;53.108;6.308;2024-02-21T11:57:14;9.60;99.90
52397;DHT22;38322;53.108;6.308;2024-02-21T11:59:40;9.60;99.90
52397;DHT22;38322;53.108;6.308;2024-02-21T12:02:06;9.60;99.90
52397;DHT22;38322;53.108;6.308;2024-02-21T12:04:33;9.60;99.90
52397;DHT22;38322;53.108;6.308;2024-02-21T12:06:59;9.60;99.90
52397;DHT22;38322;53.108;6.308;2024-02-21T12:09:26;9.60;99.90
52397;DHT22;38322;53.108;6.308;2024-02-21T12:11:59;9.60;99.90
52397;DHT22;38322;53.108;6.308;2024-02-21T12:14:27;9.60;99.90
52397;DHT22;38322;53.108;6.308;2024-02-21T12:16:54;9.60;99.90
52397;DHT22;38322;53.108;6.308;2024-02-21T12:19:20;9.60;99.90
52397;DHT22;38322;53.108;6.308;2024-02-21T12:21:48;9.60;99.90
52397;DHT22;38322;53.108;6.308;2024-02-21T12:24:23;9.60;99.90
52397;DHT22;38322;53.108;6.308;2024-02-21T12:26:49;9.70;99.90
52397;DHT22;38322;53.108;6.308;2024-02-21T12:29:15;9.70;99.90
52397;DHT22;38322;53.108;6.308;2024-02-21T12:31:41;9.70;99.90
52397;DHT22;38322;53.108;6.308;2024-02-21T12:34:07;9.80;99.90
52397;DHT22;38322;53.108;6.308;2024-02-21T12:36:44;9.70;99.90
52397;DHT22;38322;53.108;6.308;2024-02-21T12:39:10;9.70;99.90
52397;DHT22;38322;53.108;6.308;2024-02-21T12:41:37;9.70;99.90
52397;DHT22;38322;53.108;6.308;2024-02-21T12:44:05;9.70;99.90
52397;DHT22;38322;53.108;6.308;2024-02-21T12:46:37;9.70;99.90
52397;DHT22;38322;53.108;6.308;2024-02-21T12:49:04;9.70;99.90
52397;DHT22;38322;53.108;6.308;2024-02-21T12:51:31;9.70;99.90
52397;DHT22;38322;53.108;6.308;2024-02-21T12:53:57;9.70;99.90
52397;DHT22;38322;53.108;6.308;2024-02-21T12:56:23;9.70;99.90
52397;DHT22;38322;53.108;6.308;2024-02-21T12:58:50;9.70;99.90
52397;DHT22;38322;53.108;6.308;2024-02-21T13:01:16;9.80;99.90
52397;DHT22;38322;53.108;6.308;2024-02-21T13:03:42;9.70;99.90
52397;DHT22;38322;53.108;6.308;2024-02-21T13:06:08;9.70;99.90
52397;DHT22;38322;53.108;6.308;2024-02-21T13:08:37;9.70;99.90
52397;DHT22;38322;53.108;6.308;2024-02-21T13:11:03;9.70;99.90
52397;DHT22;38322;53.108;6.308;2024-02-21T13:13:30;9.70;99.90
52397;DHT22;38322;53.108;6.308;2024-02-21T13:15:56;9.80;99.90
52397;DHT22;38322;53.108;6.308;2024-02-21T13:18:22;9.80;99.90
52397;DHT22;38322;53.108;6.308;2024-02-21T13:20:48;9.80;99.90
52397;DHT22;38322;53.108;6.308;2024-02-21T13:23:14;9.80;99.90
52397;DHT22;38322;53.108;6.308;2024-02-21T13:25:40;9.80;99.90
52397;DHT22;38322;53.108;6.308;2024-02-21T13:28:06;9.70;99.90
52397;DHT22;38322;53.108;6.308;2024-02-21T13:30:32;9.60;99.90
52397;DHT22;38322;53.108;6.308;2024-02-21T13:32:58;9.70;99.90
52397;DHT22;38322;53.108;6.308;2024-02-21T13:35:24;9.70;99.90
52397;DHT22;38322;53.108;6.308;2024-02-21T13:37:51;9.70;99.90
52397;DHT22;38322;53.108;6.308;2024-02-21T13:40:17;9.70;99.90
52397;DHT22;38322;53.108;6.308;2024-02-21T13:42:42;9.80;99.90
52397;DHT22;38322;53.108;6.308;2024-02-21T13:45:09;9.80;99.90
52397;DHT22;38322;53.108;6.308;2024-02-21T13:47:35;9.80;99.90
52397;DHT22;38322;53.108;6.308;2024-02-21T13:50:05;9.80;99.90
52397;DHT22;38322;53.108;6.308;2024-02-21T13:52:37;9.80;99.90
52397;DHT22;38322;53.108;6.308;2024-02-21T13:55:03;9.80;99.90
52397;DHT22;38322;53.108;6.308;2024-02-21T13:57:29;9.80;99.90
52397;DHT22;38322;53.108;6.308;2024-02-21T13:59:55;9.80;99.90
52397;DHT22;38322;53.108;6.308;2024-02-21T14:02:21;9.80;99.90
52397;DHT22;38322;53.108;6.308;2024-02-21T14:04:47;9.80;99.90
52397;DHT22;38322;53.108;6.308;2024-02-21T14:07:13;9.70;99.90
52397;DHT22;38322;53.108;6.308;2024-02-21T14:09:39;9.70;99.90
52397;DHT22;38322;53.108;6.308;2024-02-21T14:12:05;9.70;99.90
52397;DHT22;38322;53.108;6.308;2024-02-21T14:14:35;9.70;99.90
52397;DHT22;38322;53.108;6.308;2024-02-21T14:17:01;9.60;99.90
52397;DHT22;38322;53.108;6.308;2024-02-21T14:19:27;9.60;99.90
52397;DHT22;38322;53.108;6.308;2024-02-21T14:21:53;9.60;99.90
52397;DHT22;38322;53.108;6.308;2024-02-21T14:24:19;9.60;99.90
52397;DHT22;38322;53.108;6.308;2024-02-21T14:26:45;9.50;99.90
52397;DHT22;38322;53.108;6.308;2024-02-21T14:29:11;9.50;99.90
52397;DHT22;38322;53.108;6.308;2024-02-21T14:31:38;9.50;99.90
52397;DHT22;38322;53.108;6.308;2024-02-21T14:34:04;9.50;99.90
52397;DHT22;38322;53.108;6.308;2024-02-21T14:36:30;9.50;99.90
52397;DHT22;38322;53.108;6.308;2024-02-21T14:38:55;9.40;99.90
52397;DHT22;38322;53.108;6.308;2024-02-21T14:41:21;9.40;99.90
52397;DHT22;38322;53.108;6.308;2024-02-21T14:43:47;9.40;99.90
52397;DHT22;38322;53.108;6.308;2024-02-21T14:46:13;9.40;99.90
52397;DHT22;38322;53.108;6.308;2024-02-21T14:48:39;9.40;99.90
52397;DHT22;38322;53.108;6.308;2024-02-21T14:51:05;9.40;99.90
52397;DHT22;38322;53.108;6.308;2024-02-21T14:53:30;9.30;99.90
52397;DHT22;38322;53.108;6.308;2024-02-21T14:55:56;9.30;99.90
52397;DHT22;38322;53.108;6.308;2024-02-21T14:58:23;9.30;99.90
52397;DHT22;38322;53.108;6.308;2024-02-21T15:00:49;9.30;99.90
52397;DHT22;38322;53.108;6.308;2024-02-21T15:03:16;9.30;99.90
52397;DHT22;38322;53.108;6.308;2024-02-21T15:05:45;9.30;99.90
52397;DHT22;38322;53.108;6.308;2024-02-21T15:08:12;9.20;99.90
52397;DHT22;38322;53.108;6.308;2024-02-21T15:10:40;9.30;99.90
52397;DHT22;38322;53.108;6.308;2024-02-21T15:13:05;9.20;99.90
52397;DHT22;38322;53.108;6.308;2024-02-21T15:15:31;9.20;99.90
52397;DHT22;38322;53.108;6.308;2024-02-21T15:17:57;9.20;99.90
52397;DHT22;38322;53.108;6.308;2024-02-21T15:20:23;9.20;99.90
52397;DHT22;38322;53.108;6.308;2024-02-21T15:22:49;9.10;99.90
52397;DHT22;38322;53.108;6.308;2024-02-21T15:25:15;9.20;99.90
52397;DHT22;38322;53.108;6.308;2024-02-21T15:27:43;9.20;99.90
52397;DHT22;38322;53.108;6.308;2024-02-21T15:30:10;9.10;99.90
52397;DHT22;38322;53.108;6.308;2024-02-21T15:32:38;9.10;99.90
52397;DHT22;38322;53.108;6.308;2024-02-21T15:35:05;9.10;99.90
52397;DHT22;38322;53.108;6.308;2024-02-21T15:37:32;9.10;99.90
52397;DHT22;38322;53.108;6.308;2024-02-21T15:39:58;9.10;99.90
52397;DHT22;38322;53.108;6.308;2024-02-21T15:42:24;9.10;99.90
52397;DHT22;38322;53.108;6.308;2024-02-21T15:44:51;9.10;99.90
52397;DHT22;38322;53.108;6.308;2024-02-21T15:47:16;9.00;99.90
52397;DHT22;38322;53.108;6.308;2024-02-21T15:49:44;9.00;99.90
52397;DHT22;38322;53.108;6.308;2024-02-21T15:52:10;9.00;99.90
52397;DHT22;38322;53.108;6.308;2024-02-21T15:54:38;8.90;99.90
52397;DHT22;38322;53.108;6.308;2024-02-21T15:57:04;8.90;99.90
52397;DHT22;38322;53.108;6.308;2024-02-21T15:59:32;8.90;99.90
52397;DHT22;38322;53.108;6.308;2024-02-21T16:01:58;8.90;99.90
52397;DHT22;38322;53.108;6.308;2024-02-21T16:04:26;8.90;99.90
52397;DHT22;38322;53.108;6.308;2024-02-21T16:06:54;8.90;99.90
52397;DHT22;38322;53.108;6.308;2024-02-21T16:09:20;8.80;99.90
52397;DHT22;38322;53.108;6.308;2024-02-21T16:11:47;8.80;99.90
52397;DHT22;38322;53.108;6.308;2024-02-21T16:14:13;8.80;99.90
52397;DHT22;38322;53.108;6.308;2024-02-21T16:16:39;8.80;99.90
52397;DHT22;38322;53.108;6.308;2024-02-21T16:19:06;8.80;99.90
52397;DHT22;38322;53.108;6.308;2024-02-21T16:21:33;8.70;99.90
52397;DHT22;38322;53.108;6.308;2024-02-21T16:23:58;8.70;99.90
52397;DHT22;38322;53.108;6.308;2024-02-21T16:26:24;8.70;99.90
52397;DHT22;38322;53.108;6.308;2024-02-21T16:28:50;8.70;99.90
52397;DHT22;38322;53.108;6.308;2024-02-21T16:31:16;8.70;99.90
52397;DHT22;38322;53.108;6.308;2024-02-21T16:33:42;8.70;99.90
52397;DHT22;38322;53.108;6.308;2024-02-21T16:36:08;8.70;99.90
52397;DHT22;38322;53.108;6.308;2024-02-21T16:38:35;8.60;99.90
52397;DHT22;38322;53.108;6.308;2024-02-21T16:41:05;8.60;99.90
52397;DHT22;38322;53.108;6.308;2024-02-21T16:43:31;8.60;99.90
52397;DHT22;38322;53.108;6.308;2024-02-21T16:45:57;8.60;99.90
52397;DHT22;38322;53.108;6.308;2024-02-21T16:48:23;8.60;99.90
52397;DHT22;38322;53.108;6.308;2024-02-21T16:50:49;8.60;99.90
52397;DHT22;38322;53.108;6.308;2024-02-21T16:53:15;8.60;99.90
52397;DHT22;38322;53.108;6.308;2024-02-21T16:55:41;8.60;99.90
52397;DHT22;38322;53.108;6.308;2024-02-21T16:58:07;8.50;99.90
52397;DHT22;38322;53.108;6.308;2024-02-21T17:00:33;8.50;99.90
52397;DHT22;38322;53.108;6.308;2024-02-21T17:03:00;8.50;99.90
52397;DHT22;38322;53.108;6.308;2024-02-21T17:05:26;8.50;99.90
52397;DHT22;38322;53.108;6.308;2024-02-21T17:07:52;8.50;99.90
52397;DHT22;38322;53.108;6.308;2024-02-21T17:10:18;8.50;99.90
52397;DHT22;38322;53.108;6.308;2024-02-21T17:12:44;8.50;99.90
52397;DHT22;38322;53.108;6.308;2024-02-21T17:15:10;8.50;99.90
52397;DHT22;38322;53.108;6.308;2024-02-21T17:17:36;8.50;99.90
52397;DHT22;38322;53.108;6.308;2024-02-21T17:20:02;8.50;99.90
52397;DHT22;38322;53.108;6.308;2024-02-21T17:22:28;8.40;99.90
52397;DHT22;38322;53.108;6.308;2024-02-21T17:24:54;8.40;99.90
52397;DHT22;38322;53.108;6.308;2024-02-21T17:27:20;8.40;99.90
52397;DHT22;38322;53.108;6.308;2024-02-21T17:29:46;8.40;99.90
52397;DHT22;38322;53.108;6.308;2024-02-21T17:32:12;8.40;99.90
52397;DHT22;38322;53.108;6.308;2024-02-21T17:34:38;8.40;99.90
52397;DHT22;38322;53.108;6.308;2024-02-21T17:37:05;8.40;99.90
52397;DHT22;38322;53.108;6.308;2024-02-21T17:39:31;8.40;99.90
52397;DHT22;38322;53.108;6.308;2024-02-21T17:41:57;8.40;99.90
52397;DHT22;38322;53.108;6.308;2024-02-21T17:44:23;8.40;99.90
52397;DHT22;38322;53.108;6.308;2024-02-21T17:46:50;8.40;99.90
52397;DHT22;38322;53.108;6.308;2024-02-21T17:49:16;8.40;99.90
52397;DHT22;38322;53.108;6.308;2024-02-21T17:51:43;8.30;99.90
52397;DHT22;38322;53.108;6.308;2024-02-21T17:54:09;8.40;99.90
52397;DHT22;38322;53.108;6.308;2024-02-21T17:56:34;8.30;99.90
52397;DHT22;38322;53.108;6.308;2024-02-21T17:59:00;8.30;99.90
52397;DHT22;38322;53.108;6.308;2024-02-21T18:01:26;8.30;99.90
52397;DHT22;38322;53.108;6.308;2024-02-21T18:03:53;8.30;99.90
52397;DHT22;38322;53.108;6.308;2024-02-21T18:06:19;8.30;99.90
52397;DHT22;38322;53.108;6.308;2024-02-21T18:08:45;8.30;99.90
52397;DHT22;38322;53.108;6.308;2024-02-21T18:11:11;8.20;99.90
52397;DHT22;38322;53.108;6.308;2024-02-21T18:13:37;8.30;99.90
52397;DHT22;38322;53.108;6.308;2024-02-21T18:16:03;8.20;99.90
52397;DHT22;38322;53.108;6.308;2024-02-21T18:18:30;8.20;99.90
52397;DHT22;38322;53.108;6.308;2024-02-21T18:20:56;8.30;99.90
52397;DHT22;38322;53.108;6.308;2024-02-21T18:23:22;8.20;99.90
52397;DHT22;38322;53.108;6.308;2024-02-21T18:25:48;8.20;99.90
52397;DHT22;38322;53.108;6.308;2024-02-21T18:28:14;8.30;99.90
52397;DHT22;38322;53.108;6.308;2024-02-21T18:30:40;8.20;99.90
52397;DHT22;38322;53.108;6.308;2024-02-21T18:33:06;8.20;99.90
52397;DHT22;38322;53.108;6.308;2024-02-21T18:35:33;8.20;99.90
52397;DHT22;38322;53.108;6.308;2024-02-21T18:38:00;8.20;99.90
52397;DHT22;38322;53.108;6.308;2024-02-21T18:40:27;8.20;99.90
52397;DHT22;38322;53.108;6.308;2024-02-21T18:42:54;8.20;99.90
52397;DHT22;38322;53.108;6.308;2024-02-21T18:45:24;8.20;99.90
52397;DHT22;38322;53.108;6.308;2024-02-21T18:47:50;8.20;99.90
52397;DHT22;38322;53.108;6.308;2024-02-21T18:50:17;8.20;99.90
52397;DHT22;38322;53.108;6.308;2024-02-21T18:52:43;8.30;99.90
52397;DHT22;38322;53.108;6.308;2024-02-21T18:55:13;8.30;99.90
52397;DHT22;38322;53.108;6.308;2024-02-21T18:57:41;8.30;99.90
52397;DHT22;38322;53.108;6.308;2024-02-21T19:00:07;8.30;99.90
52397;DHT22;38322;53.108;6.308;2024-02-21T19:02:35;8.30;99.90
52397;DHT22;38322;53.108;6.308;2024-02-21T19:05:01;8.30;99.90
52397;DHT22;38322;53.108;6.308;2024-02-21T19:07:27;8.30;99.90
52397;DHT22;38322;53.108;6.308;2024-02-21T19:09:55;8.30;99.90
52397;DHT22;38322;53.108;6.308;2024-02-21T19:12:20;8.30;99.90
52397;DHT22;38322;53.108;6.308;2024-02-21T19:14:46;8.30;99.90
52397;DHT22;38322;53.108;6.308;2024-02-21T19:17:12;8.30;99.90
52397;DHT22;38322;53.108;6.308;2024-02-21T19:19:38;8.30;99.90
52397;DHT22;38322;53.108;6.308;2024-02-21T19:22:04;8.30;99.90
52397;DHT22;38322;53.108;6.308;2024-02-21T19:24:30;8.30;99.90
52397;DHT22;38322;53.108;6.308;2024-02-21T19:26:56;8.30;99.90
52397;DHT22;38322;53.108;6.308;2024-02-21T19:29:22;8.30;99.90
52397;DHT22;38322;53.108;6.308;2024-02-21T19:31:49;8.30;99.90
52397;DHT22;38322;53.108;6.308;2024-02-21T19:34:15;8.30;99.90
52397;DHT22;38322;53.108;6.308;2024-02-21T19:36:41;8.30;99.90
52397;DHT22;38322;53.108;6.308;2024-02-21T19:39:08;8.30;99.90
52397;DHT22;38322;53.108;6.308;2024-02-21T19:41:36;8.30;99.90
52397;DHT22;38322;53.108;6.308;2024-02-21T19:44:02;8.30;99.90
52397;DHT22;38322;53.108;6.308;2024-02-21T19:46:28;8.30;99.90
52397;DHT22;38322;53.108;6.308;2024-02-21T19:48:54;8.30;99.90
52397;DHT22;38322;53.108;6.308;2024-02-21T19:51:20;8.20;99.90
52397;DHT22;38322;53.108;6.308;2024-02-21T19:53:46;8.20;99.90
52397;DHT22;38322;53.108;6.308;2024-02-21T19:56:12;8.30;99.90
52397;DHT22;38322;53.108;6.308;2024-02-21T19:58:40;8.20;99.90
52397;DHT22;38322;53.108;6.308;2024-02-21T20:01:06;8.30;99.90
52397;DHT22;38322;53.108;6.308;2024-02-21T20:03:32;8.30;99.90
52397;DHT22;38322;53.108;6.308;2024-02-21T20:05:58;8.30;99.90
52397;DHT22;38322;53.108;6.308;2024-02-21T20:08:24;8.30;99.90
52397;DHT22;38322;53.108;6.308;2024-02-21T20:10:50;8.20;99.90
52397;DHT22;38322;53.108;6.308;2024-02-21T20:13:17;8.20;99.90
52397;DHT22;38322;53.108;6.308;2024-02-21T20:15:43;8.30;99.90
52397;DHT22;38322;53.108;6.308;2024-02-21T20:18:09;8.30;99.90
52397;DHT22;38322;53.108;6.308;2024-02-21T20:20:37;8.20;99.90
52397;DHT22;38322;53.108;6.308;2024-02-21T20:23:04;8.30;99.90
52397;DHT22;38322;53.108;6.308;2024-02-21T20:25:31;8.20;99.90
52397;DHT22;38322;53.108;6.308;2024-02-21T20:27:57;8.20;99.90
52397;DHT22;38322;53.108;6.308;2024-02-21T20:30:24;8.30;99.90
52397;DHT22;38322;53.108;6.308;2024-02-21T20:32:50;8.30;99.90
52397;DHT22;38322;53.108;6.308;2024-02-21T20:35:18;8.30;99.90
52397;DHT22;38322;53.108;6.308;2024-02-21T20:37:44;8.30;99.90
52397;DHT22;38322;53.108;6.308;2024-02-21T20:40:10;8.30;99.90
52397;DHT22;38322;53.108;6.308;2024-02-21T20:42:36;8.20;99.90
52397;DHT22;38322;53.108;6.308;2024-02-21T20:45:02;8.30;99.90
52397;DHT22;38322;53.108;6.308;2024-02-21T20:47:28;8.30;99.90
52397;DHT22;38322;53.108;6.308;2024-02-21T20:49:54;8.30;99.90
52397;DHT22;38322;53.108;6.308;2024-02-21T20:52:23;8.30;99.90
52397;DHT22;38322;53.108;6.308;2024-02-21T20:54:49;8.30;99.90
52397;DHT22;38322;53.108;6.308;2024-02-21T20:57:16;8.30;99.90
52397;DHT22;38322;53.108;6.308;2024-02-21T20:59:42;8.30;99.90
